createdAt,value
2022-08-16T00:01:24.551Z,16.85
2022-08-16T00:03:53.885Z,19.30
2022-08-16T00:06:22.449Z,18.23
2022-08-16T00:08:49.755Z,18.85
2022-08-16T00:11:19.237Z,19.23
2022-08-16T00:13:53.843Z,15.40
2022-08-16T00:17:06.680Z,16.44
2022-08-16T00:19:13.764Z,19.19
2022-08-16T00:21:42.522Z,18.23
2022-08-16T00:24:12.331Z,16.51
2022-08-16T00:26:45.013Z,19.07
2022-08-16T00:29:16.048Z,19.03
2022-08-16T00:31:59.293Z,19.00
2022-08-16T00:34:44.220Z,18.11
2022-08-16T00:37:20.461Z,19.03
2022-08-16T00:39:57.537Z,18.42
2022-08-16T00:42:31.826Z,18.64
2022-08-16T00:45:18.760Z,18.71
2022-08-16T00:47:53.436Z,19.06
2022-08-16T00:50:36.616Z,18.56
2022-08-16T00:53:08.461Z,19.02
2022-08-16T00:55:38.418Z,18.66
2022-08-16T00:58:13.174Z,18.97
2022-08-16T01:00:45.601Z,18.93
2022-08-16T01:03:30.034Z,18.46
2022-08-16T01:05:59.644Z,18.08
2022-08-16T01:08:50.418Z,17.98
2022-08-16T01:11:18.347Z,17.74
2022-08-16T01:13:49.311Z,17.50
2022-08-16T01:16:25.819Z,17.38
2022-08-16T01:19:11.235Z,18.12
2022-08-16T01:21:55.630Z,18.73
2022-08-16T01:24:53.820Z,18.67
2022-08-16T01:27:57.692Z,16.81
2022-08-16T01:30:28.987Z,18.65
2022-08-16T01:33:02.876Z,18.13
2022-08-16T01:35:59.572Z,17.92
2022-08-16T01:38:35.482Z,16.81
2022-08-16T01:41:19.244Z,18.49
2022-08-16T01:43:53.980Z,18.42
2022-08-16T01:46:39.478Z,18.40
2022-08-16T01:49:43.059Z,15.66
2022-08-16T01:52:28.105Z,17.98
2022-08-16T01:55:18.652Z,17.97
2022-08-16T01:57:53.470Z,18.21
2022-08-16T02:00:29.929Z,17.52
2022-08-16T02:02:58.891Z,14.55
2022-08-16T02:05:25.824Z,18.39
2022-08-16T02:08:00.464Z,18.40
2022-08-16T02:10:28.530Z,18.40
2022-08-16T02:13:00.583Z,17.22
2022-08-16T02:15:40.277Z,18.42
2022-08-16T02:18:12.746Z,17.84
2022-08-16T02:20:42.606Z,17.86
2022-08-16T02:23:13.131Z,17.17
2022-08-16T02:25:52.444Z,18.28
2022-08-16T02:28:24.363Z,17.79
2022-08-16T02:30:53.880Z,13.42
2022-08-16T02:33:24.644Z,18.30
2022-08-16T02:36:14.383Z,14.81
2022-08-16T02:39:01.481Z,16.99
2022-08-16T02:41:29.353Z,17.58
2022-08-16T02:43:56.747Z,17.62
2022-08-16T02:46:33.308Z,16.82
2022-08-16T02:49:03.299Z,18.23
2022-08-16T02:51:35.830Z,18.19
2022-08-16T02:54:03.766Z,16.33
2022-08-16T02:56:34.812Z,18.13
2022-08-16T02:59:02.153Z,16.32
2022-08-16T03:01:33.795Z,17.57
2022-08-16T03:04:49.852Z,17.93
2022-08-16T03:06:59.227Z,16.04
2022-08-16T03:09:52.715Z,14.89
2022-08-16T03:12:30.251Z,18.02
2022-08-16T03:15:08.039Z,18.00
2022-08-16T03:17:37.716Z,17.38
2022-08-16T03:20:31.860Z,14.24
2022-08-16T03:22:59.484Z,17.42
2022-08-16T03:25:26.468Z,15.65
2022-08-16T03:28:10.512Z,13.82
2022-08-16T03:30:39.842Z,15.52
2022-08-16T03:33:10.887Z,13.64
2022-08-16T03:35:48.630Z,17.86
2022-08-16T03:38:34.507Z,17.55
2022-08-16T03:41:14.408Z,16.70
2022-08-16T03:43:55.929Z,17.81
2022-08-16T03:46:48.488Z,15.85
2022-08-16T03:49:20.550Z,17.12
2022-08-16T03:51:55.333Z,17.25
2022-08-16T03:54:28.979Z,17.52
2022-08-16T03:56:58.794Z,17.24
2022-08-16T03:59:31.358Z,17.29
2022-08-16T04:02:04.202Z,17.64
2022-08-16T04:04:40.351Z,17.06
2022-08-16T04:07:08.375Z,17.28
2022-08-16T04:09:39.534Z,17.68
2022-08-16T04:12:54.432Z,17.70
2022-08-16T04:14:59.357Z,17.47
2022-08-16T04:17:27.216Z,16.82
2022-08-16T04:19:58.258Z,14.98
2022-08-16T04:22:28.012Z,17.51
2022-08-16T04:25:00.207Z,17.69
2022-08-16T04:27:33.668Z,13.62
2022-08-16T04:30:04.978Z,14.70
2022-08-16T04:32:42.378Z,14.18
2022-08-16T04:35:16.521Z,15.83
2022-08-16T04:37:48.449Z,16.83
2022-08-16T04:40:25.593Z,17.85
2022-08-16T04:42:54.680Z,16.65
2022-08-16T04:45:35.291Z,14.21
2022-08-16T04:48:06.834Z,16.51
2022-08-16T04:50:43.735Z,18.05
2022-08-16T04:53:20.609Z,17.81
2022-08-16T04:55:53.428Z,18.14
2022-08-16T04:58:41.368Z,17.47
2022-08-16T05:01:11.546Z,17.66
2022-08-16T05:03:41.960Z,15.38
2022-08-16T05:06:45.602Z,17.26
2022-08-16T05:09:28.519Z,17.59
2022-08-16T05:11:57.896Z,17.46
2022-08-16T05:14:45.460Z,17.53
2022-08-16T05:17:24.941Z,18.89
2022-08-16T05:19:58.639Z,19.00
2022-08-16T05:25:41.233Z,18.84
2022-08-16T05:28:18.755Z,17.96
2022-08-16T05:30:52.486Z,18.87
2022-08-16T05:33:27.209Z,19.65
2022-08-16T05:35:58.802Z,19.82
2022-08-16T05:38:39.325Z,19.87
2022-08-16T05:41:13.965Z,21.75
2022-08-16T05:43:46.718Z,22.09
2022-08-16T05:46:28.663Z,22.12
2022-08-16T05:49:08.622Z,24.12
2022-08-16T05:51:46.053Z,26.00
2022-08-16T05:54:25.179Z,25.80
2022-08-16T05:56:56.202Z,26.89
2022-08-16T05:59:26.881Z,27.13
2022-08-16T06:01:55.805Z,27.81
2022-08-16T06:04:36.519Z,28.01
2022-08-16T06:07:24.965Z,25.65
2022-08-16T06:10:05.532Z,25.93
2022-08-16T06:12:35.714Z,28.71
2022-08-16T06:15:10.240Z,28.18
2022-08-16T06:17:44.312Z,28.66
2022-08-16T06:20:35.441Z,29.44
2022-08-16T06:23:18.911Z,28.96
2022-08-16T06:26:09.721Z,30.17
2022-08-16T06:28:41.914Z,30.58
2022-08-16T06:31:17.344Z,29.70
2022-08-16T06:33:52.928Z,30.28
2022-08-16T06:36:21.969Z,31.27
2022-08-16T06:38:57.259Z,29.88
2022-08-16T06:41:39.592Z,31.70
2022-08-16T06:44:21.035Z,33.31
2022-08-16T06:46:54.458Z,33.23
2022-08-16T06:49:22.346Z,33.66
2022-08-16T06:51:50.606Z,33.34
2022-08-16T06:54:27.694Z,34.15
2022-08-16T06:56:55.686Z,34.86
2022-08-16T06:59:25.548Z,34.14
2022-08-16T07:01:58.212Z,35.04
2022-08-16T07:04:33.156Z,35.07
2022-08-16T07:07:24.281Z,34.41
2022-08-16T07:09:59.874Z,33.67
2022-08-16T07:12:47.106Z,36.13
2022-08-16T07:15:17.106Z,36.37
2022-08-16T07:17:49.697Z,35.77
2022-08-16T07:20:35.736Z,35.67
2022-08-16T07:23:13.366Z,37.49
2022-08-16T07:25:49.001Z,37.59
2022-08-16T07:28:20.461Z,36.54
2022-08-16T07:30:48.858Z,35.11
2022-08-16T07:33:51.899Z,37.96
2022-08-16T07:36:21.858Z,37.32
2022-08-16T07:38:50.586Z,38.94
2022-08-16T07:41:18.629Z,39.03
2022-08-16T07:43:50.224Z,38.49
2022-08-16T07:46:38.778Z,38.99
2022-08-16T07:49:12.976Z,38.58
2022-08-16T07:51:42.279Z,39.02
2022-08-16T07:54:12.696Z,37.03
2022-08-16T07:56:49.466Z,40.33
2022-08-16T07:59:16.610Z,38.27
2022-08-16T08:01:44.683Z,39.45
2022-08-16T08:04:13.358Z,39.60
2022-08-16T08:06:45.445Z,39.33
2022-08-16T08:09:18.606Z,38.50
2022-08-16T08:11:59.735Z,38.14
2022-08-16T08:14:38.401Z,40.45
2022-08-16T08:17:08.616Z,39.10
2022-08-16T08:19:37.460Z,40.46
2022-08-16T08:22:09.912Z,40.63
2022-08-16T08:24:53.571Z,40.20
2022-08-16T08:27:27.324Z,40.83
2022-08-16T08:30:09.242Z,40.76
2022-08-16T08:32:59.792Z,39.10
2022-08-16T08:35:34.496Z,39.42
2022-08-16T08:38:03.282Z,38.51
2022-08-16T08:40:33.445Z,38.89
2022-08-16T08:43:12.456Z,39.38
2022-08-16T08:45:52.720Z,38.20
2022-08-16T08:48:33.836Z,41.26
2022-08-16T08:51:17.281Z,40.28
2022-08-16T08:53:57.615Z,37.87
2022-08-16T08:56:35.064Z,36.31
2022-08-16T08:59:22.316Z,37.74
2022-08-16T09:01:56.619Z,39.79
2022-08-16T09:04:40.903Z,37.60
2022-08-16T09:07:08.796Z,39.97
2022-08-16T09:09:41.294Z,38.90
2022-08-16T09:12:31.252Z,39.65
2022-08-16T09:15:08.352Z,37.98
2022-08-16T09:17:51.558Z,38.68
2022-08-16T09:20:23.798Z,38.78
2022-08-16T09:23:00.189Z,37.31
2022-08-16T09:25:39.954Z,36.68
2022-08-16T09:28:13.913Z,39.07
2022-08-16T09:31:21.291Z,39.44
2022-08-16T09:33:52.304Z,39.12
2022-08-16T09:36:32.680Z,36.59
2022-08-16T09:39:01.891Z,38.26
2022-08-16T09:41:30.005Z,36.90
2022-08-16T09:45:09.746Z,38.94
2022-08-16T09:46:49.948Z,38.68
2022-08-16T09:49:19.887Z,37.60
2022-08-16T09:51:53.314Z,37.12
2022-08-16T09:54:23.026Z,33.95
2022-08-16T09:56:52.638Z,35.60
2022-08-16T09:59:20.996Z,36.63
2022-08-16T10:01:52.536Z,35.07
2022-08-16T10:04:31.699Z,36.87
2022-08-16T10:07:11.891Z,36.63
2022-08-16T10:09:54.388Z,35.92
2022-08-16T10:12:46.128Z,33.30
2022-08-16T10:15:17.708Z,34.69
2022-08-16T10:18:00.780Z,35.15
2022-08-16T10:20:36.680Z,33.68
2022-08-16T10:23:07.993Z,32.81
2022-08-16T10:27:20.023Z,33.97
2022-08-16T10:28:32.036Z,31.10
2022-08-16T10:31:03.533Z,33.44
2022-08-16T10:33:33.525Z,32.74
2022-08-16T10:36:05.039Z,31.46
2022-08-16T10:38:36.807Z,33.08
2022-08-16T10:41:06.916Z,30.87
2022-08-16T10:43:36.432Z,32.37
2022-08-16T10:46:39.482Z,31.71
2022-08-16T10:48:52.969Z,31.68
2022-08-16T10:51:19.927Z,32.63
2022-08-16T10:54:04.940Z,30.41
2022-08-16T10:56:51.567Z,29.91
2022-08-16T10:59:44.050Z,30.63
2022-08-16T11:02:58.162Z,32.64
2022-08-16T11:05:12.438Z,31.85
2022-08-16T11:08:06.936Z,32.94
2022-08-16T11:19:05.307Z,30.88
2022-08-16T11:21:37.496Z,31.24
2022-08-16T11:24:40.238Z,31.57
2022-08-16T11:27:23.245Z,29.93
2022-08-16T11:29:56.122Z,30.70
2022-08-16T11:32:31.508Z,31.25
2022-08-16T11:35:10.840Z,31.58
2022-08-16T11:40:44.329Z,32.39
2022-08-16T11:43:12.976Z,30.57
2022-08-16T11:45:54.101Z,32.41
2022-08-16T11:48:23.870Z,28.72
2022-08-16T11:50:51.116Z,31.23
2022-08-16T11:53:22.031Z,30.12
2022-08-16T11:55:54.866Z,30.85
2022-08-16T11:58:28.220Z,31.85
2022-08-16T12:00:58.506Z,29.68
2022-08-16T12:03:34.945Z,29.23
2022-08-16T12:06:10.944Z,27.92
2022-08-16T12:09:01.032Z,27.20
2022-08-16T12:11:31.468Z,29.61
2022-08-16T12:14:05.915Z,31.81
2022-08-16T12:16:35.744Z,32.15
2022-08-16T12:19:10.678Z,31.17
2022-08-16T12:21:58.363Z,32.51
2022-08-16T12:24:27.537Z,32.55
2022-08-16T12:26:55.168Z,31.27
2022-08-16T12:29:22.560Z,32.62
2022-08-16T12:32:00.520Z,32.31
2022-08-16T12:34:29.577Z,28.42
2022-08-16T12:37:02.509Z,32.78
2022-08-16T12:39:29.687Z,32.63
2022-08-16T12:41:57.763Z,32.78
2022-08-16T12:44:31.189Z,30.30
2022-08-16T12:47:17.752Z,33.52
2022-08-16T12:49:45.833Z,33.35
2022-08-16T12:52:32.772Z,30.98
2022-08-16T12:55:01.937Z,32.91
2022-08-16T12:57:36.651Z,33.51
2022-08-16T13:00:23.271Z,33.42
2022-08-16T13:02:54.566Z,33.60
2022-08-16T13:05:24.099Z,34.55
2022-08-16T13:07:53.320Z,33.81
2022-08-16T13:10:37.895Z,31.93
2022-08-16T13:13:09.100Z,32.66
2022-08-16T13:15:55.533Z,33.84
2022-08-16T13:18:34.729Z,34.20
2022-08-16T13:21:06.380Z,35.17
2022-08-16T13:23:36.792Z,33.88
2022-08-16T13:26:12.821Z,33.06
2022-08-16T13:28:47.713Z,31.99
2022-08-16T13:31:16.089Z,34.24
2022-08-16T13:33:44.188Z,34.06
2022-08-16T13:39:01.489Z,34.28
2022-08-16T13:41:30.459Z,32.86
2022-08-16T13:44:00.862Z,34.63
2022-08-16T13:46:35.963Z,34.88
2022-08-16T13:49:04.315Z,32.32
2022-08-16T13:51:31.489Z,31.45
2022-08-16T13:54:04.070Z,34.06
2022-08-16T13:56:38.933Z,32.04
2022-08-16T13:59:19.843Z,34.24
2022-08-16T14:01:59.819Z,31.93
2022-08-16T14:04:31.888Z,34.42
2022-08-16T14:07:00.654Z,34.54
2022-08-16T14:09:29.049Z,33.10
2022-08-16T14:12:00.889Z,33.61
2022-08-16T14:14:30.221Z,33.52
2022-08-16T14:16:59.997Z,32.54
2022-08-16T14:19:29.607Z,30.68
2022-08-16T14:22:13.571Z,33.01
2022-08-16T14:24:46.796Z,33.43
2022-08-16T14:27:21.137Z,32.21
2022-08-16T14:29:50.006Z,33.73
2022-08-16T14:32:33.154Z,33.63
2022-08-16T14:35:05.547Z,32.43
2022-08-16T14:37:35.652Z,33.95
2022-08-16T14:40:04.344Z,30.86
2022-08-16T14:42:32.370Z,31.61
2022-08-16T14:45:00.479Z,33.20
2022-08-16T14:47:34.085Z,33.00
2022-08-16T14:50:02.853Z,31.94
2022-08-16T14:55:21.759Z,31.92
2022-08-16T14:57:49.835Z,31.56
2022-08-16T15:00:22.342Z,31.86
2022-08-16T15:03:02.259Z,31.01
2022-08-16T15:07:56.912Z,32.83
2022-08-16T15:10:26.606Z,30.58
2022-08-16T15:12:59.770Z,28.36
2022-08-16T15:15:29.127Z,32.91
2022-08-16T15:17:57.369Z,32.91
2022-08-16T15:20:30.648Z,30.61
2022-08-16T15:22:59.683Z,30.90
2022-08-16T15:25:30.115Z,31.79
2022-08-16T15:27:59.319Z,32.75
2022-08-16T15:30:48.192Z,32.97
2022-08-16T15:33:19.986Z,31.27
2022-08-16T15:36:03.522Z,32.86
2022-08-16T15:39:02.610Z,31.15
2022-08-16T15:41:48.021Z,32.48
2022-08-16T15:44:22.308Z,31.01
2022-08-16T15:46:59.919Z,32.30
2022-08-16T15:49:37.720Z,30.67
2022-08-16T15:52:18.399Z,32.46
2022-08-16T15:54:51.468Z,31.74
2022-08-16T15:57:25.415Z,32.63
2022-08-16T15:59:56.118Z,32.78
2022-08-16T16:02:31.009Z,32.12
2022-08-16T16:05:06.816Z,32.80
2022-08-16T16:07:36.856Z,32.86
2022-08-16T16:10:13.423Z,31.81
2022-08-16T16:12:54.152Z,31.98
2022-08-16T16:15:29.458Z,32.79
2022-08-16T16:17:57.373Z,32.56
2022-08-16T16:20:27.498Z,31.32
2022-08-16T16:23:10.421Z,33.07
2022-08-16T16:25:43.740Z,32.91
2022-08-16T16:29:05.422Z,30.55
2022-08-16T16:31:04.770Z,32.21
2022-08-16T16:33:34.056Z,29.80
2022-08-16T16:36:03.988Z,31.89
2022-08-16T16:38:34.616Z,30.14
2022-08-16T16:41:08.991Z,29.17
2022-08-16T16:43:38.556Z,30.22
2022-08-16T16:46:41.369Z,30.66
2022-08-16T16:48:58.061Z,29.26
2022-08-16T16:51:27.908Z,29.75
2022-08-16T16:53:56.859Z,30.91
2022-08-16T16:56:34.383Z,30.40
2022-08-16T16:59:10.497Z,31.35
2022-08-16T17:01:59.584Z,28.49
2022-08-16T17:04:40.520Z,30.16
2022-08-16T17:07:07.809Z,28.01
2022-08-16T17:13:06.897Z,30.10
2022-08-16T17:15:36.527Z,28.71
2022-08-16T17:18:04.263Z,30.84
2022-08-16T17:20:52.907Z,28.60
2022-08-16T17:23:20.318Z,29.37
2022-08-16T17:26:10.546Z,28.24
2022-08-16T17:28:59.497Z,27.37
2022-08-16T17:31:38.435Z,27.80
2022-08-16T17:34:28.870Z,28.31
2022-08-16T17:37:00.522Z,29.21
2022-08-16T17:39:29.921Z,28.50
2022-08-16T17:42:12.515Z,28.54
2022-08-16T17:44:40.101Z,29.43
2022-08-16T17:47:07.250Z,27.40
2022-08-16T17:49:37.866Z,29.21
2022-08-16T17:52:05.932Z,27.21
2022-08-16T17:54:33.138Z,27.68
2022-08-16T17:57:01.118Z,25.07
2022-08-16T17:59:29.804Z,26.18
2022-08-16T18:01:57.737Z,25.42
2022-08-16T18:04:49.628Z,28.50
2022-08-16T18:07:12.996Z,26.59
2022-08-16T18:09:40.906Z,27.55
2022-08-16T18:12:44.516Z,28.12
2022-08-16T18:15:11.827Z,23.31
2022-08-16T18:17:40.487Z,26.66
2022-08-16T18:20:28.942Z,26.88
2022-08-16T18:23:09.285Z,26.66
2022-08-16T18:25:41.855Z,25.13
2022-08-16T18:28:09.164Z,26.65
2022-08-16T18:30:36.304Z,27.30
2022-08-16T18:33:03.802Z,25.32
2022-08-16T18:35:30.847Z,27.09
2022-08-16T18:37:58.185Z,24.03
2022-08-16T18:40:26.732Z,26.92
2022-08-16T18:43:02.823Z,25.71
2022-08-16T18:45:35.397Z,25.94
2022-08-16T18:48:05.389Z,24.95
2022-08-16T18:50:59.071Z,23.70
2022-08-16T18:53:21.899Z,26.57
2022-08-16T18:55:49.681Z,26.49
2022-08-16T18:58:17.770Z,24.64
2022-08-16T19:00:56.056Z,26.30
2022-08-16T19:03:29.941Z,26.23
2022-08-16T19:06:02.939Z,24.68
2022-08-16T19:08:31.618Z,24.32
2022-08-16T19:10:58.482Z,24.97
2022-08-16T19:13:27.856Z,25.47
2022-08-16T19:15:57.280Z,25.97
2022-08-16T19:18:26.158Z,24.11
2022-08-16T19:20:55.462Z,25.90
2022-08-16T19:23:26.316Z,25.31
2022-08-16T19:26:02.515Z,25.91
2022-08-16T19:28:49.333Z,24.69
2022-08-16T19:31:32.753Z,23.83
2022-08-16T19:34:00.827Z,22.51
2022-08-16T19:36:36.771Z,25.98
2022-08-16T19:39:14.545Z,25.27
2022-08-16T19:41:44.396Z,24.63
2022-08-16T19:44:11.840Z,26.01
2022-08-16T19:46:41.657Z,23.57
2022-08-16T19:49:08.535Z,26.00
2022-08-16T19:51:35.417Z,24.32
2022-08-16T19:54:05.016Z,25.95
2022-08-16T19:56:32.127Z,23.62
2022-08-16T20:01:46.942Z,23.48
2022-08-16T20:04:13.921Z,24.28
2022-08-16T20:06:41.981Z,25.92
2022-08-16T20:09:10.938Z,25.88
2022-08-16T20:11:44.296Z,25.12
2022-08-16T20:14:30.980Z,25.82
2022-08-16T20:16:59.768Z,25.76
2022-08-16T20:19:29.537Z,23.12
2022-08-16T20:22:06.001Z,25.07
2022-08-16T20:24:35.118Z,22.30
2022-08-16T20:27:04.661Z,25.84
2022-08-16T20:29:32.651Z,25.86
2022-08-16T20:31:59.639Z,25.47
2022-08-16T20:34:26.686Z,25.23
2022-08-16T20:36:53.846Z,23.83
2022-08-16T20:39:20.931Z,24.21
2022-08-16T20:41:47.860Z,24.04
2022-08-16T20:44:14.840Z,23.91
2022-08-16T20:46:41.992Z,23.58
2022-08-16T20:49:10.230Z,25.47
2022-08-16T20:51:46.670Z,25.94
2022-08-16T20:54:14.729Z,25.63
2022-08-16T20:56:41.820Z,24.65
2022-08-16T20:59:08.851Z,25.87
2022-08-16T21:01:46.426Z,24.08
2022-08-16T21:04:22.506Z,25.75
2022-08-16T21:06:54.113Z,25.72
2022-08-16T21:09:33.882Z,25.70
2022-08-16T21:12:05.555Z,24.06
2022-08-16T21:14:34.410Z,25.00
2022-08-16T21:17:06.568Z,25.54
2022-08-16T21:19:37.330Z,24.92
2022-08-16T21:22:11.185Z,24.56
2022-08-16T21:24:38.285Z,25.32
2022-08-16T21:27:05.272Z,25.07
2022-08-16T21:29:39.665Z,25.01
2022-08-16T21:32:17.706Z,24.13
2022-08-16T21:34:45.110Z,23.75
2022-08-16T21:37:12.464Z,24.11
2022-08-16T21:39:44.693Z,25.10
2022-08-16T21:42:14.373Z,23.19
2022-08-16T21:44:42.151Z,22.16
2022-08-16T21:47:12.107Z,23.81
2022-08-16T21:49:39.174Z,24.21
2022-08-16T21:52:08.105Z,23.31
2022-08-16T21:54:36.943Z,22.60
2022-08-16T21:57:07.559Z,22.24
2022-08-16T21:59:37.178Z,22.78
2022-08-16T22:02:04.242Z,23.65
2022-08-16T22:04:36.806Z,24.21
2022-08-16T22:07:09.765Z,24.68
2022-08-16T22:09:36.622Z,24.61
2022-08-16T22:12:04.601Z,24.09
2022-08-16T22:14:34.019Z,23.42
2022-08-16T22:17:01.371Z,24.28
2022-08-16T22:19:28.505Z,23.68
2022-08-16T22:21:58.323Z,23.67
2022-08-16T22:24:25.175Z,24.04
2022-08-16T22:26:52.086Z,22.66
2022-08-16T22:29:19.256Z,19.83
2022-08-16T22:31:46.145Z,23.68
2022-08-16T22:34:13.760Z,23.83
2022-08-16T22:36:42.019Z,23.66
2022-08-16T22:39:11.188Z,23.57
2022-08-16T22:41:40.082Z,19.55
2022-08-16T22:44:07.288Z,23.36
2022-08-16T22:46:36.587Z,19.97
2022-08-16T22:49:05.279Z,23.17
2022-08-16T22:51:33.013Z,19.83
2022-08-16T22:54:39.250Z,21.39
2022-08-16T22:56:50.252Z,23.07
2022-08-16T22:59:20.198Z,23.02
2022-08-16T23:01:47.174Z,22.35
2022-08-16T23:04:14.071Z,20.69
2022-08-16T23:06:41.132Z,22.90
2022-08-16T23:09:09.450Z,21.33
2022-08-16T23:11:39.349Z,22.81
2022-08-16T23:14:06.239Z,22.25
2022-08-16T23:16:36.189Z,22.76
2022-08-16T23:19:05.749Z,22.86
2022-08-16T23:21:37.592Z,22.41
2022-08-16T23:24:06.248Z,22.66
2022-08-16T23:26:44.976Z,22.57
2022-08-16T23:29:25.465Z,22.55
2022-08-16T23:31:58.371Z,19.01
2022-08-16T23:34:27.950Z,21.26
2022-08-16T23:36:58.095Z,19.74
2022-08-16T23:39:25.313Z,20.62
2022-08-16T23:41:52.387Z,20.59
2022-08-16T23:44:44.111Z,21.20
2022-08-16T23:47:06.434Z,22.35
2022-08-16T23:49:57.071Z,19.84
2022-08-16T23:52:45.285Z,21.07
2022-08-16T23:55:09.381Z,21.52
2022-08-16T23:57:37.518Z,21.23
